createdAt,value
2019-01-25T00:00:36.419Z,0
2019-01-25T00:01:45.660Z,0
2019-01-25T00:02:55.652Z,0
2019-01-25T00:04:05.400Z,0
2019-01-25T00:05:14.893Z,0
2019-01-25T00:06:24.890Z,0
2019-01-25T00:07:34.878Z,0
2019-01-25T00:08:44.871Z,0
2019-01-25T00:10:01.112Z,0
2019-01-25T00:11:10.846Z,0
2019-01-25T00:12:20.595Z,0
2019-01-25T00:13:30.337Z,0
2019-01-25T00:14:39.831Z,0
2019-01-25T00:15:48.805Z,0
2019-01-25T00:16:58.542Z,0
2019-01-25T00:18:08.315Z,0
2019-01-25T00:19:18.303Z,0
2019-01-25T00:20:28.040Z,0
2019-01-25T00:21:38.047Z,0
2019-01-25T00:22:47.799Z,0
2019-01-25T00:23:57.186Z,0
2019-01-25T00:25:07.252Z,0
2019-01-25T00:26:17.058Z,0
2019-01-25T00:27:27.051Z,0
2019-01-25T00:28:36.799Z,0
2019-01-25T00:29:46.580Z,0
2019-01-25T00:30:56.068Z,0
2019-01-25T00:32:06.054Z,0
2019-01-25T00:33:15.791Z,0
2019-01-25T00:34:25.525Z,0
2019-01-25T00:35:35.270Z,0
2019-01-25T00:36:45.011Z,0
2019-01-25T00:37:54.504Z,0
2019-01-25T00:39:04.244Z,0
2019-01-25T00:40:14.236Z,0
2019-01-25T00:41:23.717Z,0
2019-01-25T00:42:33.452Z,0
2019-01-25T00:43:43.447Z,0
2019-01-25T00:44:52.946Z,0
2019-01-25T00:46:02.734Z,0
2019-01-25T00:47:12.466Z,0
2019-01-25T00:48:21.946Z,0
2019-01-25T00:49:31.935Z,0
2019-01-25T00:50:41.922Z,0
2019-01-25T00:51:51.916Z,0
2019-01-25T00:53:01.693Z,0
2019-01-25T00:54:11.172Z,0
2019-01-25T00:55:20.915Z,0
2019-01-25T00:56:30.702Z,0
2019-01-25T00:57:40.183Z,0
2019-01-25T00:58:49.940Z,0
2019-01-25T00:59:59.674Z,0
2019-01-25T01:01:09.415Z,0
2019-01-25T01:02:19.405Z,0
2019-01-25T01:03:29.138Z,0
2019-01-25T01:04:38.372Z,0
2019-01-25T01:05:47.851Z,0
2019-01-25T01:06:57.838Z,0
2019-01-25T01:08:07.577Z,0
2019-01-25T01:09:17.316Z,0
2019-01-25T01:10:26.542Z,0
2019-01-25T01:11:36.282Z,0
2019-01-25T01:12:46.281Z,0
2019-01-25T01:13:55.506Z,0
2019-01-25T01:15:05.095Z,0
2019-01-25T01:16:16.030Z,0
2019-01-25T01:17:25.511Z,0
2019-01-25T01:18:35.505Z,0
2019-01-25T01:19:45.244Z,0
2019-01-25T01:20:54.727Z,0
2019-01-25T01:22:04.714Z,0
2019-01-25T01:23:14.453Z,0
2019-01-25T01:24:24.444Z,0
2019-01-25T01:25:33.413Z,0
2019-01-25T01:26:43.149Z,0
2019-01-25T01:27:52.633Z,0
2019-01-25T01:29:02.373Z,0
2019-01-25T01:30:12.366Z,0
2019-01-25T01:31:22.356Z,0
2019-01-25T01:32:31.847Z,0
2019-01-25T01:33:41.847Z,0
2019-01-25T01:34:51.582Z,0
2019-01-25T01:36:01.311Z,0
2019-01-25T01:37:10.546Z,0
2019-01-25T01:38:20.543Z,0
2019-01-25T01:39:30.535Z,0
2019-01-25T01:40:40.027Z,0
2019-01-25T01:41:49.766Z,0
2019-01-25T01:42:58.747Z,0
2019-01-25T01:44:08.485Z,0
2019-01-25T01:45:17.962Z,0
2019-01-25T01:46:27.444Z,0
2019-01-25T01:47:37.198Z,0
2019-01-25T01:48:46.679Z,0
2019-01-25T01:49:56.414Z,0
2019-01-25T01:51:06.150Z,0
2019-01-25T01:52:15.888Z,0
2019-01-25T01:53:25.874Z,0
2019-01-25T01:54:35.864Z,0
2019-01-25T01:55:45.342Z,0
2019-01-25T01:56:55.079Z,0
2019-01-25T01:58:05.067Z,0
2019-01-25T01:59:14.811Z,0
2019-01-25T02:00:24.045Z,0
2019-01-25T02:01:33.575Z,0
2019-01-25T02:02:43.307Z,0
2019-01-25T02:03:53.039Z,0
2019-01-25T02:05:03.056Z,0
2019-01-25T02:06:12.791Z,0
2019-01-25T02:07:22.527Z,0
2019-01-25T02:08:32.264Z,0
2019-01-25T02:09:41.743Z,0
2019-01-25T02:10:51.494Z,0
2019-01-25T02:12:00.983Z,0
2019-01-25T02:13:10.724Z,0
2019-01-25T02:14:20.714Z,0
2019-01-25T02:15:30.704Z,0
2019-01-25T02:16:40.443Z,0
2019-01-25T02:17:49.927Z,0
2019-01-25T02:18:59.420Z,0
2019-01-25T02:20:09.167Z,0
2019-01-25T02:21:19.157Z,0
2019-01-25T02:22:28.889Z,0
2019-01-25T02:23:38.366Z,0
2019-01-25T02:24:47.858Z,0
2019-01-25T02:25:57.591Z,0
2019-01-25T02:27:07.321Z,0
2019-01-25T02:28:17.052Z,0
2019-01-25T02:29:27.041Z,0
2019-01-25T02:30:37.030Z,0
2019-01-25T02:31:47.025Z,0
2019-01-25T02:32:57.017Z,0
2019-01-25T02:34:08.087Z,0
2019-01-25T02:35:17.820Z,0
2019-01-25T02:36:27.830Z,0
2019-01-25T02:37:37.594Z,0
2019-01-25T02:38:47.594Z,0
2019-01-25T02:39:57.335Z,0
2019-01-25T02:41:07.334Z,0
2019-01-25T02:42:17.338Z,0
2019-01-25T02:43:27.079Z,0
2019-01-25T02:44:36.817Z,0
2019-01-25T02:45:46.556Z,0
2019-01-25T02:46:56.060Z,0
2019-01-25T02:48:06.067Z,0
2019-01-25T02:49:15.553Z,0
2019-01-25T02:50:25.325Z,0
2019-01-25T02:51:34.805Z,0
2019-01-25T02:52:44.803Z,0
2019-01-25T02:53:54.564Z,0
2019-01-25T02:55:04.568Z,0
2019-01-25T02:56:14.048Z,0
2019-01-25T02:57:23.533Z,0
2019-01-25T02:58:33.015Z,0
2019-01-25T02:59:42.752Z,0
2019-01-25T03:00:52.739Z,0
2019-01-25T03:02:02.734Z,0
2019-01-25T03:03:12.732Z,0
2019-01-25T03:04:22.468Z,0
2019-01-25T03:05:32.462Z,0
2019-01-25T03:06:41.948Z,0
2019-01-25T03:07:51.693Z,0
2019-01-25T03:09:01.199Z,0
2019-01-25T03:10:10.701Z,0
2019-01-25T03:11:20.193Z,0
2019-01-25T03:12:29.686Z,0
2019-01-25T03:13:39.431Z,0
2019-01-25T03:14:49.165Z,0
2019-01-25T03:15:59.184Z,0
2019-01-25T03:17:08.428Z,0
2019-01-25T03:18:18.164Z,0
2019-01-25T03:19:28.167Z,0
2019-01-25T03:20:38.160Z,0
2019-01-25T03:21:48.158Z,0
2019-01-25T03:22:57.936Z,0
2019-01-25T03:24:07.685Z,0
2019-01-25T03:25:17.677Z,0
2019-01-25T03:26:27.667Z,0
2019-01-25T03:27:37.154Z,0
2019-01-25T03:28:46.854Z,0
2019-01-25T03:29:56.587Z,0
2019-01-25T03:31:06.348Z,0
2019-01-25T03:32:16.332Z,0
2019-01-25T03:33:26.356Z,0
2019-01-25T03:34:36.313Z,0
2019-01-25T03:35:45.776Z,0
2019-01-25T03:36:55.494Z,0
2019-01-25T03:38:05.208Z,0
2019-01-25T03:39:15.174Z,0
2019-01-25T03:40:24.888Z,0
2019-01-25T03:41:34.847Z,0
2019-01-25T03:42:44.536Z,0
2019-01-25T03:43:54.537Z,0
2019-01-25T03:45:04.248Z,0
2019-01-25T03:46:13.718Z,0
2019-01-25T03:47:23.167Z,0
2019-01-25T03:48:32.630Z,0
2019-01-25T03:49:42.076Z,0
2019-01-25T03:50:52.021Z,0
2019-01-25T03:52:02.023Z,0
2019-01-25T03:53:11.456Z,0
2019-01-25T03:54:21.424Z,0
2019-01-25T03:55:31.138Z,0
2019-01-25T03:56:40.594Z,0
2019-01-25T03:57:50.312Z,0
2019-01-25T03:59:00.315Z,0
2019-01-25T04:00:10.031Z,0
2019-01-25T04:01:19.966Z,0
2019-01-25T04:02:29.921Z,0
2019-01-25T04:03:39.896Z,0
2019-01-25T04:04:49.331Z,0
2019-01-25T04:05:58.806Z,0
2019-01-25T04:07:08.535Z,0
2019-01-25T04:08:18.015Z,0
2019-01-25T04:09:28.075Z,0
2019-01-25T04:10:37.588Z,0
2019-01-25T04:11:47.526Z,0
2019-01-25T04:12:57.502Z,0
2019-01-25T04:14:07.229Z,0
2019-01-25T04:15:16.688Z,0
2019-01-25T04:16:26.395Z,0
2019-01-25T04:17:36.078Z,0
2019-01-25T04:18:46.015Z,0
2019-01-25T04:19:55.961Z,0
2019-01-25T04:21:05.406Z,0
2019-01-25T04:22:15.130Z,0
2019-01-25T04:23:24.616Z,0
2019-01-25T04:24:34.587Z,0
2019-01-25T04:25:44.304Z,0
2019-01-25T04:26:54.283Z,0
2019-01-25T04:28:03.982Z,0
2019-01-25T04:29:13.728Z,0
2019-01-25T04:30:23.444Z,0
2019-01-25T04:31:33.392Z,0
2019-01-25T04:32:43.331Z,0
2019-01-25T04:33:53.028Z,0
2019-01-25T04:35:02.823Z,0
2019-01-25T04:36:12.291Z,0
2019-01-25T04:37:22.027Z,0
2019-01-25T04:38:31.477Z,0
2019-01-25T04:39:40.971Z,0
2019-01-25T04:40:50.431Z,0
2019-01-25T04:42:00.390Z,0
2019-01-25T04:43:10.079Z,0
2019-01-25T04:44:20.042Z,0
2019-01-25T04:45:29.774Z,0
2019-01-25T04:46:39.211Z,0
2019-01-25T04:47:48.708Z,0
2019-01-25T04:48:58.414Z,0
2019-01-25T04:50:08.177Z,0
2019-01-25T04:51:17.877Z,0
2019-01-25T04:52:27.316Z,0
2019-01-25T04:53:37.014Z,0
2019-01-25T04:54:46.967Z,0
2019-01-25T04:55:56.695Z,0
2019-01-25T04:57:07.822Z,0
2019-01-25T04:58:17.516Z,0
2019-01-25T04:59:27.506Z,0
2019-01-25T05:00:37.480Z,0
2019-01-25T05:01:47.180Z,0
2019-01-25T05:02:56.645Z,0
2019-01-25T05:04:06.582Z,0
2019-01-25T05:05:16.056Z,0
2019-01-25T05:06:25.758Z,0
2019-01-25T05:07:35.688Z,0
2019-01-25T05:08:45.110Z,0
2019-01-25T05:09:54.780Z,0
2019-01-25T05:11:04.466Z,0
2019-01-25T05:12:14.448Z,0
2019-01-25T05:13:24.145Z,0
2019-01-25T05:14:34.121Z,0
2019-01-25T05:15:43.546Z,0
2019-01-25T05:16:53.467Z,0
2019-01-25T05:18:03.159Z,0
2019-01-25T05:19:12.839Z,0
2019-01-25T05:20:22.267Z,0
2019-01-25T05:21:31.955Z,0
2019-01-25T05:22:41.880Z,0
2019-01-25T05:23:51.561Z,0
2019-01-25T05:25:01.288Z,0
2019-01-25T05:26:11.224Z,0
2019-01-25T05:27:20.646Z,0
2019-01-25T05:28:30.576Z,0
2019-01-25T05:29:40.073Z,0
2019-01-25T05:30:50.003Z,0
2019-01-25T05:31:59.923Z,0
2019-01-25T05:33:09.358Z,0
2019-01-25T05:34:18.797Z,0
2019-01-25T05:35:28.280Z,0
2019-01-25T05:36:37.979Z,0
2019-01-25T05:37:47.905Z,0
2019-01-25T05:38:57.826Z,0
2019-01-25T05:40:07.316Z,0
2019-01-25T05:41:17.034Z,0
2019-01-25T05:42:26.970Z,0
2019-01-25T05:43:36.650Z,0
2019-01-25T05:44:46.574Z,0
2019-01-25T05:45:56.501Z,0
2019-01-25T05:47:05.928Z,0
2019-01-25T05:48:15.596Z,0
2019-01-25T05:49:25.030Z,0
2019-01-25T05:50:34.695Z,0
2019-01-25T05:51:44.625Z,0
2019-01-25T05:52:54.048Z,0
2019-01-25T05:54:03.975Z,0
2019-01-25T05:55:13.655Z,0
2019-01-25T05:56:23.074Z,0
2019-01-25T05:57:32.236Z,0
2019-01-25T05:58:42.152Z,0
2019-01-25T05:59:52.080Z,0
2019-01-25T06:01:01.506Z,0
2019-01-25T06:02:11.440Z,0
2019-01-25T06:03:21.138Z,0
2019-01-25T06:04:30.562Z,0
2019-01-25T06:05:40.475Z,0
2019-01-25T06:06:50.142Z,0
2019-01-25T06:07:59.333Z,0
2019-01-25T06:09:08.766Z,0
2019-01-25T06:10:17.935Z,0
2019-01-25T06:11:27.609Z,0
2019-01-25T06:12:42.902Z,0
2019-01-25T06:13:52.324Z,0
2019-01-25T06:15:01.996Z,0
2019-01-25T06:16:11.661Z,0
2019-01-25T06:17:21.597Z,0
2019-01-25T06:18:31.536Z,0
2019-01-25T06:19:42.035Z,0
2019-01-25T06:20:51.715Z,0
2019-01-25T06:22:01.393Z,0
2019-01-25T06:23:10.817Z,0
2019-01-25T06:24:20.481Z,0
2019-01-25T06:25:29.898Z,0
2019-01-25T06:26:39.316Z,0
2019-01-25T06:27:48.736Z,0
2019-01-25T06:28:58.164Z,0
2019-01-25T06:30:07.346Z,0
2019-01-25T06:31:16.759Z,0
2019-01-25T06:32:26.674Z,0
2019-01-25T06:33:36.344Z,0
2019-01-25T06:34:46.266Z,0
2019-01-25T06:35:55.958Z,0
2019-01-25T06:37:05.639Z,0
2019-01-25T06:38:14.812Z,0
2019-01-25T06:39:24.230Z,0
2019-01-25T06:40:33.646Z,0
2019-01-25T06:41:51.166Z,0
2019-01-25T06:43:00.587Z,0
2019-01-25T06:44:10.007Z,0
2019-01-25T06:45:19.932Z,0
2019-01-25T06:46:29.605Z,0
2019-01-25T06:47:39.531Z,0
2019-01-25T06:48:48.952Z,0
2019-01-25T06:49:58.615Z,4
2019-01-25T06:51:08.335Z,0
2019-01-25T06:52:17.505Z,0
2019-01-25T06:53:27.480Z,4
2019-01-25T06:54:36.650Z,4
2019-01-25T06:55:46.318Z,4
2019-01-25T06:56:56.090Z,4
2019-01-25T06:58:05.836Z,4
2019-01-25T06:59:15.512Z,8
2019-01-25T07:00:24.681Z,8
2019-01-25T07:01:34.356Z,12
2019-01-25T07:02:43.598Z,8
2019-01-25T07:03:53.383Z,12
2019-01-25T07:05:02.803Z,16
2019-01-25T07:06:12.469Z,16
2019-01-25T07:07:21.637Z,20
2019-01-25T07:08:31.102Z,24
2019-01-25T07:09:40.526Z,28
2019-01-25T07:10:50.189Z,32
2019-01-25T07:11:59.616Z,36
2019-01-25T07:13:08.533Z,36
2019-01-25T07:14:18.202Z,44
2019-01-25T07:15:27.617Z,52
2019-01-25T07:16:37.037Z,52
2019-01-25T07:17:46.472Z,60
2019-01-25T07:18:55.641Z,68
2019-01-25T07:20:04.807Z,72
2019-01-25T07:21:13.975Z,80
2019-01-25T07:22:23.648Z,88
2019-01-25T07:23:33.310Z,92
2019-01-25T07:24:42.976Z,104
2019-01-25T07:25:53.895Z,116
2019-01-25T07:27:03.305Z,124
2019-01-25T07:28:12.972Z,132
2019-01-25T07:29:22.902Z,144
2019-01-25T07:30:32.861Z,156
2019-01-25T07:31:43.363Z,164
2019-01-25T07:32:54.006Z,176
2019-01-25T07:34:03.510Z,192
2019-01-25T07:35:13.443Z,200
2019-01-25T07:36:23.217Z,212
2019-01-25T07:37:32.848Z,224
2019-01-25T07:38:42.389Z,232
2019-01-25T07:39:51.625Z,240
2019-01-25T07:41:01.607Z,252
2019-01-25T07:42:11.628Z,268
2019-01-25T07:43:21.083Z,284
2019-01-25T07:44:31.154Z,292
2019-01-25T07:45:41.136Z,300
2019-01-25T07:46:51.119Z,312
2019-01-25T07:48:00.844Z,320
2019-01-25T07:49:10.579Z,336
2019-01-25T07:50:20.497Z,356
2019-01-25T07:51:30.541Z,368
2019-01-25T07:52:40.559Z,388
2019-01-25T07:53:50.362Z,416
2019-01-25T07:55:00.365Z,444
2019-01-25T07:56:10.519Z,468
2019-01-25T07:57:20.316Z,476
2019-01-25T07:58:30.060Z,480
2019-01-25T07:59:39.540Z,492
2019-01-25T08:00:49.246Z,516
2019-01-25T08:01:58.716Z,532
2019-01-25T08:03:08.256Z,544
2019-01-25T08:04:18.275Z,568
2019-01-25T08:05:27.719Z,600
2019-01-25T08:06:37.314Z,632
2019-01-25T08:07:47.412Z,664
2019-01-25T08:08:57.358Z,708
2019-01-25T08:10:07.279Z,756
2019-01-25T08:11:17.328Z,768
2019-01-25T08:12:27.074Z,788
2019-01-25T08:13:36.517Z,792
2019-01-25T08:14:46.290Z,768
2019-01-25T08:15:56.290Z,860
2019-01-25T08:17:06.161Z,880
2019-01-25T08:18:16.037Z,892
2019-01-25T08:19:26.118Z,904
2019-01-25T08:20:35.688Z,940
2019-01-25T08:21:45.515Z,980
2019-01-25T08:22:55.570Z,1020
2019-01-25T08:24:05.385Z,1056
2019-01-25T08:25:15.403Z,1096
2019-01-25T08:26:25.041Z,1156
2019-01-25T08:27:35.323Z,1192
2019-01-25T08:28:44.860Z,1200
2019-01-25T08:29:54.591Z,1220
2019-01-25T08:31:04.365Z,1260
2019-01-25T08:32:14.176Z,1312
2019-01-25T08:33:24.296Z,1376
2019-01-25T08:34:33.646Z,1420
2019-01-25T08:35:43.718Z,1396
2019-01-25T08:36:53.489Z,1424
2019-01-25T08:38:03.717Z,1412
2019-01-25T08:39:14.117Z,1500
2019-01-25T08:40:23.833Z,1544
2019-01-25T08:41:33.611Z,1584
2019-01-25T08:42:43.333Z,1640
2019-01-25T08:43:53.059Z,1692
2019-01-25T08:45:04.621Z,1720
2019-01-25T08:46:14.077Z,1748
2019-01-25T08:47:23.873Z,1776
2019-01-25T08:48:36.344Z,1824
2019-01-25T08:49:45.883Z,1856
2019-01-25T08:50:56.030Z,1884
2019-01-25T08:52:06.077Z,1928
2019-01-25T08:53:18.522Z,1940
2019-01-25T08:54:28.277Z,1968
2019-01-25T08:55:37.994Z,2024
2019-01-25T08:56:47.850Z,2084
2019-01-25T08:57:57.735Z,2136
2019-01-25T08:59:07.512Z,1984
2019-01-25T09:00:17.211Z,2104
2019-01-25T09:01:27.135Z,2132
2019-01-25T09:02:36.566Z,2164
2019-01-25T09:03:46.239Z,2204
2019-01-25T09:04:56.165Z,2240
2019-01-25T09:06:06.086Z,2288
2019-01-25T09:07:15.753Z,2264
2019-01-25T09:08:25.420Z,2272
2019-01-25T09:09:35.337Z,2312
2019-01-25T09:10:45.008Z,2496
2019-01-25T09:11:54.931Z,2580
2019-01-25T09:13:04.604Z,2616
2019-01-25T09:14:14.528Z,2648
2019-01-25T09:15:25.151Z,2660
2019-01-25T09:16:34.582Z,2700
2019-01-25T09:17:44.520Z,2768
2019-01-25T09:18:54.449Z,2676
2019-01-25T09:20:04.385Z,2580
2019-01-25T09:21:13.807Z,2748
2019-01-25T09:22:23.230Z,2940
2019-01-25T09:23:32.148Z,3056
2019-01-25T09:24:41.562Z,3144
2019-01-25T09:25:51.482Z,2788
2019-01-25T09:27:08.630Z,3072
2019-01-25T09:28:18.547Z,3296
2019-01-25T09:29:27.728Z,3396
2019-01-25T09:30:37.413Z,3480
2019-01-25T09:31:47.364Z,3484
2019-01-25T09:32:57.047Z,3476
2019-01-25T09:34:06.223Z,3380
2019-01-25T09:35:16.151Z,3448
2019-01-25T09:36:25.574Z,3440
2019-01-25T09:37:34.751Z,3328
2019-01-25T09:38:44.587Z,3164
2019-01-25T09:39:54.502Z,3108
2019-01-25T09:41:04.432Z,3020
2019-01-25T09:42:14.099Z,3136
2019-01-25T09:43:23.770Z,2972
2019-01-25T09:44:33.491Z,3388
2019-01-25T09:45:42.923Z,3400
2019-01-25T09:46:53.503Z,3548
2019-01-25T09:48:03.514Z,3544
2019-01-25T09:49:13.487Z,3248
2019-01-25T09:50:23.164Z,3448
2019-01-25T09:51:33.092Z,3472
2019-01-25T09:52:42.515Z,3620
2019-01-25T09:53:52.434Z,3600
2019-01-25T09:55:02.186Z,3608
2019-01-25T09:56:12.103Z,3584
2019-01-25T09:57:21.549Z,3408
2019-01-25T09:58:30.711Z,3412
2019-01-25T09:59:40.399Z,3376
2019-01-25T10:00:50.316Z,3456
2019-01-25T10:01:59.989Z,3420
2019-01-25T10:03:09.662Z,3408
2019-01-25T10:04:19.588Z,3368
2019-01-25T10:05:29.512Z,3292
2019-01-25T10:06:39.438Z,3300
2019-01-25T10:07:49.112Z,3416
2019-01-25T10:08:58.777Z,3500
2019-01-25T10:10:07.951Z,3520
2019-01-25T10:11:17.622Z,3720
2019-01-25T10:12:27.033Z,3884
2019-01-25T10:13:36.709Z,3844
2019-01-25T10:14:46.391Z,3668
2019-01-25T10:15:56.313Z,3356
2019-01-25T10:17:05.983Z,3088
2019-01-25T10:18:15.650Z,3156
2019-01-25T10:19:25.320Z,3260
2019-01-25T10:20:35.278Z,3500
2019-01-25T10:21:44.945Z,3724
2019-01-25T10:22:54.376Z,3676
2019-01-25T10:24:04.305Z,3632
2019-01-25T10:25:13.972Z,3664
2019-01-25T10:26:23.646Z,3888
2019-01-25T10:27:33.560Z,4056
2019-01-25T10:28:43.558Z,3960
2019-01-25T10:29:52.736Z,3792
2019-01-25T10:31:02.405Z,3832
2019-01-25T10:32:12.322Z,4036
2019-01-25T10:33:22.248Z,4164
2019-01-25T10:34:32.171Z,4052
2019-01-25T10:35:42.091Z,4128
2019-01-25T10:36:52.022Z,4292
2019-01-25T10:38:01.456Z,4388
2019-01-25T10:39:11.950Z,4568
2019-01-25T10:40:21.133Z,4864
2019-01-25T10:41:30.850Z,4960
2019-01-25T10:42:52.923Z,4856
2019-01-25T10:44:02.884Z,4784
2019-01-25T10:45:12.807Z,4604
2019-01-25T10:46:22.483Z,4312
2019-01-25T10:47:32.150Z,4400
2019-01-25T10:48:41.821Z,4844
2019-01-25T10:49:51.244Z,5036
2019-01-25T10:51:00.668Z,5208
2019-01-25T10:52:11.554Z,5412
2019-01-25T10:53:20.479Z,5632
2019-01-25T10:54:29.913Z,5480
2019-01-25T10:55:39.260Z,5600
2019-01-25T10:56:48.975Z,5844
2019-01-25T10:57:58.406Z,5776
2019-01-25T10:59:07.827Z,6092
2019-01-25T11:00:17.496Z,6500
2019-01-25T11:01:27.176Z,6516
2019-01-25T11:02:36.843Z,6704
2019-01-25T11:03:46.845Z,6928
2019-01-25T11:04:56.534Z,7268
2019-01-25T11:06:06.467Z,7788
2019-01-25T11:07:16.140Z,8132
2019-01-25T11:08:25.810Z,8268
2019-01-25T11:09:40.390Z,8324
2019-01-25T11:10:50.060Z,8584
2019-01-25T11:11:59.731Z,8272
2019-01-25T11:13:09.656Z,8744
2019-01-25T11:14:18.847Z,9132
2019-01-25T11:15:28.523Z,8488
2019-01-25T11:16:37.693Z,7016
2019-01-25T11:17:48.528Z,6528
2019-01-25T11:18:58.058Z,6372
2019-01-25T11:20:07.550Z,6096
2019-01-25T11:21:18.490Z,6328
2019-01-25T11:22:27.916Z,6604
2019-01-25T11:23:37.904Z,7240
2019-01-25T11:24:47.833Z,6620
2019-01-25T11:25:57.531Z,6488
2019-01-25T11:27:07.403Z,6516
2019-01-25T11:28:16.829Z,6724
2019-01-25T11:29:26.498Z,6508
2019-01-25T11:30:36.443Z,6064
2019-01-25T11:31:45.636Z,6304
2019-01-25T11:32:55.052Z,6476
2019-01-25T11:34:04.725Z,6532
2019-01-25T11:35:14.465Z,6600
2019-01-25T11:36:24.139Z,6236
2019-01-25T11:37:33.823Z,5784
2019-01-25T11:38:43.249Z,5768
2019-01-25T11:39:56.440Z,5508
2019-01-25T11:41:06.111Z,6528
2019-01-25T11:42:15.781Z,7016
2019-01-25T11:43:25.211Z,7584
2019-01-25T11:44:34.912Z,7200
2019-01-25T11:45:44.587Z,7396
2019-01-25T11:46:54.509Z,7436
2019-01-25T11:48:05.936Z,6984
2019-01-25T11:49:15.361Z,6664
2019-01-25T11:50:24.788Z,7024
2019-01-25T11:51:34.450Z,7792
2019-01-25T11:52:44.374Z,7884
2019-01-25T11:53:53.805Z,7580
2019-01-25T11:55:03.225Z,6700
2019-01-25T11:56:12.398Z,6232
2019-01-25T11:57:23.310Z,6392
2019-01-25T11:58:32.989Z,5900
2019-01-25T11:59:42.910Z,5132
2019-01-25T12:00:52.833Z,5084
2019-01-25T12:02:02.763Z,4904
2019-01-25T12:03:13.654Z,5072
2019-01-25T12:04:23.676Z,5592
2019-01-25T12:05:33.360Z,5916
2019-01-25T12:06:43.281Z,5836
2019-01-25T12:07:53.204Z,5244
2019-01-25T12:09:02.626Z,5496
2019-01-25T12:10:12.306Z,5752
2019-01-25T12:11:21.984Z,6016
2019-01-25T12:12:31.665Z,6796
2019-01-25T12:13:41.612Z,6916
2019-01-25T12:14:51.030Z,6936
2019-01-25T12:16:00.955Z,7260
2019-01-25T12:17:10.386Z,7068
2019-01-25T12:18:20.310Z,6768
2019-01-25T12:19:30.350Z,6736
2019-01-25T12:20:40.273Z,6616
2019-01-25T12:21:50.198Z,6672
2019-01-25T12:22:59.873Z,6632
2019-01-25T12:24:09.311Z,7020
2019-01-25T12:25:18.733Z,7372
2019-01-25T12:26:28.407Z,7316
2019-01-25T12:27:38.076Z,7216
2019-01-25T12:28:49.024Z,7068
2019-01-25T12:29:59.068Z,6932
2019-01-25T12:31:08.993Z,6912
2019-01-25T12:32:18.417Z,6856
2019-01-25T12:33:28.431Z,7024
2019-01-25T12:34:38.114Z,7272
2019-01-25T12:35:47.830Z,7500
2019-01-25T12:36:57.509Z,7612
2019-01-25T12:38:12.113Z,7800
2019-01-25T12:39:21.557Z,8016
2019-01-25T12:40:31.221Z,8084
2019-01-25T12:41:40.894Z,8180
2019-01-25T12:42:50.817Z,8264
2019-01-25T12:44:00.738Z,8224
2019-01-25T12:45:10.660Z,8088
2019-01-25T12:46:20.078Z,7928
2019-01-25T12:47:29.501Z,7908
2019-01-25T12:48:39.171Z,7868
2019-01-25T12:49:48.873Z,7964
2019-01-25T12:50:58.296Z,8096
2019-01-25T12:52:13.066Z,8080
2019-01-25T12:53:22.916Z,8352
2019-01-25T12:54:32.861Z,8516
2019-01-25T12:55:42.579Z,8456
2019-01-25T12:56:52.007Z,8132
2019-01-25T12:58:01.435Z,7780
2019-01-25T12:59:11.069Z,7432
2019-01-25T13:00:20.743Z,7276
2019-01-25T13:01:34.843Z,7300
2019-01-25T13:02:44.486Z,7456
2019-01-25T13:03:54.414Z,7448
2019-01-25T13:05:03.838Z,7484
2019-01-25T13:06:13.351Z,7344
2019-01-25T13:07:23.063Z,7168
2019-01-25T13:08:32.735Z,7048
2019-01-25T13:09:42.689Z,6928
2019-01-25T13:10:52.379Z,6848
2019-01-25T13:12:02.161Z,6792
2019-01-25T13:13:11.589Z,6784
2019-01-25T13:14:21.300Z,6792
2019-01-25T13:15:31.218Z,6856
2019-01-25T13:16:40.933Z,6848
2019-01-25T13:17:50.121Z,6740
2019-01-25T13:18:59.793Z,6632
2019-01-25T13:20:09.751Z,6532
2019-01-25T13:21:19.456Z,6360
2019-01-25T13:22:29.166Z,6236
2019-01-25T13:23:39.753Z,6212
2019-01-25T13:24:48.931Z,6244
2019-01-25T13:25:58.374Z,6244
2019-01-25T13:27:08.460Z,6132
2019-01-25T13:28:18.328Z,5892
2019-01-25T13:29:33.548Z,5604
2019-01-25T13:30:43.214Z,5420
2019-01-25T13:31:53.046Z,5224
2019-01-25T13:33:03.355Z,5040
2019-01-25T13:34:13.250Z,4908
2019-01-25T13:35:23.092Z,4804
2019-01-25T13:36:33.151Z,4720
2019-01-25T13:37:43.189Z,4680
2019-01-25T13:38:53.121Z,4648
2019-01-25T13:40:03.064Z,4592
2019-01-25T13:41:12.985Z,4552
2019-01-25T13:42:22.657Z,4540
2019-01-25T13:43:38.808Z,4516
2019-01-25T13:44:48.724Z,4476
2019-01-25T13:45:58.638Z,4424
2019-01-25T13:47:08.064Z,4328
2019-01-25T13:48:17.491Z,4180
2019-01-25T13:49:27.218Z,3972
2019-01-25T13:50:36.883Z,3796
2019-01-25T13:51:46.357Z,3720
2019-01-25T13:52:56.289Z,3724
2019-01-25T13:54:05.709Z,3736
2019-01-25T13:55:14.876Z,3712
2019-01-25T13:56:24.308Z,3652
2019-01-25T13:57:34.232Z,3572
2019-01-25T13:58:43.907Z,3508
2019-01-25T13:59:53.585Z,3468
2019-01-25T14:01:04.873Z,3444
2019-01-25T14:02:14.298Z,3380
2019-01-25T14:03:23.974Z,3268
2019-01-25T14:04:33.648Z,3140
2019-01-25T14:05:43.074Z,3044
2019-01-25T14:06:52.494Z,3024
2019-01-25T14:08:01.919Z,3064
2019-01-25T14:09:11.584Z,3076
2019-01-25T14:10:21.010Z,3052
2019-01-25T14:11:30.689Z,3016
2019-01-25T14:12:39.626Z,2928
2019-01-25T14:13:54.028Z,2796
2019-01-25T14:15:03.940Z,2680
2019-01-25T14:16:13.614Z,2588
2019-01-25T14:17:23.543Z,2512
2019-01-25T14:18:33.464Z,2436
2019-01-25T14:19:43.133Z,2368
2019-01-25T14:20:54.569Z,2312
2019-01-25T14:22:04.263Z,2292
2019-01-25T14:23:13.691Z,2292
2019-01-25T14:24:24.067Z,2292
2019-01-25T14:25:33.737Z,2248
2019-01-25T14:26:43.415Z,2156
2019-01-25T14:27:53.335Z,2044
2019-01-25T14:29:03.258Z,1952
2019-01-25T14:30:13.386Z,1884
2019-01-25T14:31:23.339Z,1816
2019-01-25T14:32:32.760Z,1740
2019-01-25T14:33:42.678Z,1676
2019-01-25T14:34:52.593Z,1624
2019-01-25T14:36:02.530Z,1592
2019-01-25T14:37:11.964Z,1572
2019-01-25T14:38:21.642Z,1536
2019-01-25T14:39:31.317Z,1516
2019-01-25T14:40:41.236Z,1520
2019-01-25T14:41:50.667Z,1540
2019-01-25T14:42:59.855Z,1532
2019-01-25T14:44:09.529Z,1480
2019-01-25T14:45:18.970Z,1404
2019-01-25T14:46:28.402Z,1336
2019-01-25T14:47:37.325Z,1284
2019-01-25T14:48:46.998Z,1248
2019-01-25T14:49:56.680Z,1216
2019-01-25T14:51:06.361Z,1188
2019-01-25T14:52:16.037Z,1164
2019-01-25T14:53:25.715Z,1160
2019-01-25T14:54:35.143Z,1184
2019-01-25T14:55:45.092Z,1208
2019-01-25T14:56:54.777Z,1220
2019-01-25T14:58:04.454Z,1228
2019-01-25T14:59:14.125Z,1244
2019-01-25T15:00:23.301Z,1256
2019-01-25T15:01:33.242Z,1260
2019-01-25T15:02:42.921Z,1240
2019-01-25T15:03:52.844Z,1196
2019-01-25T15:05:02.858Z,1144
2019-01-25T15:06:12.535Z,1084
2019-01-25T15:07:21.954Z,1024
2019-01-25T15:08:31.624Z,964
2019-01-25T15:09:42.868Z,900
2019-01-25T15:10:52.539Z,832
2019-01-25T15:12:02.212Z,764
2019-01-25T15:13:12.146Z,712
2019-01-25T15:14:21.826Z,672
2019-01-25T15:15:31.808Z,628
2019-01-25T15:16:43.503Z,584
2019-01-25T15:17:53.442Z,544
2019-01-25T15:19:02.865Z,516
2019-01-25T15:20:11.789Z,496
2019-01-25T15:21:21.467Z,476
2019-01-25T15:22:31.145Z,444
2019-01-25T15:23:40.071Z,404
2019-01-25T15:24:49.752Z,376
2019-01-25T15:25:59.675Z,348
2019-01-25T15:27:09.346Z,332
2019-01-25T15:28:18.521Z,316
2019-01-25T15:29:28.195Z,304
2019-01-25T15:30:37.991Z,288
2019-01-25T15:31:47.664Z,280
2019-01-25T15:32:57.089Z,260
2019-01-25T15:34:06.263Z,252
2019-01-25T15:35:15.687Z,248
2019-01-25T15:36:25.606Z,232
2019-01-25T15:37:35.038Z,208
2019-01-25T15:38:44.714Z,180
2019-01-25T15:39:54.638Z,168
2019-01-25T15:41:04.563Z,160
2019-01-25T15:42:13.990Z,152
2019-01-25T15:43:23.180Z,140
2019-01-25T15:44:32.601Z,120
2019-01-25T15:45:43.403Z,112
2019-01-25T15:46:52.828Z,104
2019-01-25T15:48:02.498Z,104
2019-01-25T15:49:12.424Z,100
2019-01-25T15:50:22.095Z,92
2019-01-25T15:51:31.769Z,84
2019-01-25T15:52:41.451Z,80
2019-01-25T15:53:51.120Z,72
2019-01-25T15:55:00.832Z,64
2019-01-25T15:56:10.261Z,56
2019-01-25T15:57:19.933Z,48
2019-01-25T15:58:29.376Z,44
2019-01-25T15:59:39.050Z,40
2019-01-25T16:00:48.467Z,32
2019-01-25T16:01:57.897Z,32
2019-01-25T16:03:07.331Z,28
2019-01-25T16:04:16.999Z,24
2019-01-25T16:05:26.417Z,20
2019-01-25T16:06:36.334Z,20
2019-01-25T16:07:46.024Z,16
2019-01-25T16:08:57.469Z,16
2019-01-25T16:10:07.388Z,12
2019-01-25T16:11:17.062Z,12
2019-01-25T16:12:26.486Z,8
2019-01-25T16:13:36.406Z,8
2019-01-25T16:14:46.334Z,8
2019-01-25T16:15:56.257Z,4
2019-01-25T16:17:05.934Z,8
2019-01-25T16:18:15.359Z,4